createdAt,value
2023-02-17T00:04:39.664Z,6.10
2023-02-17T00:09:41.291Z,5.87
2023-02-17T00:14:43.040Z,5.30
2023-02-17T00:19:44.736Z,5.43
2023-02-17T00:24:46.384Z,5.03
2023-02-17T00:29:48.054Z,5.43
2023-02-17T00:34:49.716Z,5.40
2023-02-17T00:39:51.415Z,5.73
2023-02-17T00:44:53.906Z,5.23
2023-02-17T00:49:56.868Z,5.50
2023-02-17T00:54:58.539Z,5.20
2023-02-17T01:00:00.153Z,4.77
2023-02-17T01:05:02.246Z,5.40
2023-02-17T01:10:07.449Z,5.13
2023-02-17T01:15:09.403Z,5.00
2023-02-17T01:20:11.416Z,5.10
2023-02-17T01:25:13.670Z,4.60
2023-02-17T01:30:15.444Z,4.67
2023-02-17T01:35:17.637Z,4.80
2023-02-17T01:40:21.685Z,5.17
2023-02-17T01:45:23.204Z,5.00
2023-02-17T01:50:30.836Z,4.33
2023-02-17T01:55:33.276Z,4.23
2023-02-17T02:00:36.415Z,4.40
2023-02-17T02:05:39.850Z,4.20
2023-02-17T02:10:42.086Z,4.00
2023-02-17T02:15:52.456Z,4.60
2023-02-17T02:21:03.343Z,3.93
2023-02-17T02:26:28.111Z,3.33
2023-02-17T02:31:54.473Z,3.93
2023-02-17T02:37:00.875Z,3.63
2023-02-17T02:42:06.532Z,3.60
2023-02-17T02:47:45.740Z,3.73
2023-02-17T02:53:08.877Z,3.70
2023-02-17T02:58:33.220Z,3.50
2023-02-17T03:03:45.485Z,3.50
2023-02-17T03:08:53.541Z,3.83
2023-02-17T03:13:55.118Z,3.50
2023-02-17T03:18:57.057Z,3.33
2023-02-17T03:23:58.973Z,3.53
2023-02-17T03:29:00.695Z,3.13
2023-02-17T03:34:04.321Z,3.00
2023-02-17T03:39:05.929Z,2.73
2023-02-17T03:44:07.462Z,3.10
2023-02-17T03:49:09.044Z,3.37
2023-02-17T03:54:10.721Z,3.03
2023-02-17T03:59:12.296Z,2.83
2023-02-17T04:04:13.975Z,2.90
2023-02-17T04:09:16.006Z,3.10
2023-02-17T04:14:17.613Z,2.80
2023-02-17T04:19:21.136Z,2.90
2023-02-17T04:24:22.889Z,3.30
2023-02-17T04:29:24.451Z,2.80
2023-02-17T04:34:26.086Z,2.97
2023-02-17T04:39:27.692Z,3.00
2023-02-17T04:44:29.361Z,3.17
2023-02-17T04:49:31.064Z,3.00
2023-02-17T04:54:32.631Z,3.00
2023-02-17T04:59:34.279Z,2.70
2023-02-17T05:04:36.092Z,2.90
2023-02-17T05:09:37.743Z,3.07
2023-02-17T05:14:39.381Z,2.93
2023-02-17T05:19:41.027Z,2.60
2023-02-17T05:24:42.572Z,3.07
2023-02-17T05:29:44.161Z,3.00
2023-02-17T05:34:45.710Z,3.20
2023-02-17T05:39:47.303Z,3.20
2023-02-17T05:44:48.867Z,3.20
2023-02-17T05:49:50.685Z,3.00
2023-02-17T05:54:52.209Z,2.97
2023-02-17T05:59:53.800Z,3.20
2023-02-17T06:04:55.521Z,3.10
2023-02-17T06:09:57.258Z,3.28
2023-02-17T06:14:58.823Z,3.10
2023-02-17T06:20:00.549Z,2.80
2023-02-17T06:25:02.235Z,2.53
2023-02-17T06:30:04.788Z,3.00
2023-02-17T06:35:06.783Z,3.00
2023-02-17T06:40:09.624Z,2.90
2023-02-17T06:45:11.210Z,2.73
2023-02-17T06:50:13.055Z,2.83
2023-02-17T06:55:14.974Z,2.70
2023-02-17T07:00:17.308Z,2.70
2023-02-17T07:05:19.018Z,2.83
2023-02-17T07:10:20.715Z,2.57
2023-02-17T07:15:22.257Z,2.80
2023-02-17T07:20:23.882Z,3.07
2023-02-17T07:25:25.659Z,3.00
2023-02-17T07:30:27.287Z,2.77
2023-02-17T07:36:02.526Z,2.43
2023-02-17T07:41:09.257Z,3.07
2023-02-17T07:46:12.062Z,2.80
2023-02-17T07:51:19.254Z,2.97
2023-02-17T07:56:22.126Z,2.83
2023-02-17T08:01:25.201Z,2.93
2023-02-17T08:06:28.533Z,2.90
2023-02-17T08:11:49.956Z,2.93
2023-02-17T08:16:52.013Z,2.60
2023-02-17T08:21:53.763Z,2.27
2023-02-17T08:26:55.755Z,2.33
2023-02-17T08:31:57.486Z,2.60
2023-02-17T08:37:00.312Z,2.50
2023-02-17T08:42:02.995Z,2.37
2023-02-17T08:47:05.561Z,2.40
2023-02-17T08:52:07.376Z,2.80
2023-02-17T08:57:09.380Z,2.10
2023-02-17T09:02:11.579Z,2.37
2023-02-17T09:07:14.876Z,2.20
2023-02-17T09:12:16.484Z,2.10
2023-02-17T09:17:18.118Z,2.03
2023-02-17T09:22:31.598Z,2.23
2023-02-17T09:27:34.120Z,2.07
2023-02-17T09:32:35.752Z,1.80
2023-02-17T09:37:37.339Z,2.10
2023-02-17T09:42:44.835Z,2.27
2023-02-17T09:47:49.341Z,1.93
2023-02-17T09:52:55.975Z,1.87
2023-02-17T09:58:12.984Z,2.13
2023-02-17T10:03:32.941Z,1.77
2023-02-17T10:09:01.563Z,1.60
2023-02-17T10:14:07.513Z,1.67
2023-02-17T10:19:24.330Z,1.50
2023-02-17T10:24:25.887Z,1.20
2023-02-17T10:29:46.720Z,1.10
2023-02-17T10:34:56.879Z,1.10
2023-02-17T10:39:58.687Z,1.17
2023-02-17T10:45:11.203Z,0.87
2023-02-17T10:50:23.967Z,1.00
2023-02-17T10:55:32.127Z,0.90
2023-02-17T11:00:33.746Z,1.10
2023-02-17T11:05:35.284Z,0.80
2023-02-17T11:10:40.665Z,0.90
2023-02-17T11:15:46.918Z,0.77
2023-02-17T11:20:48.674Z,0.80
2023-02-17T11:26:00.306Z,0.80
2023-02-17T11:31:04.987Z,0.90
2023-02-17T11:36:08.526Z,0.60
2023-02-17T11:41:11.126Z,0.77
2023-02-17T11:46:15.902Z,0.80
2023-02-17T11:51:32.808Z,0.80
2023-02-17T11:56:39.625Z,0.53
2023-02-17T12:02:25.673Z,0.70
2023-02-17T12:07:50.600Z,0.70
2023-02-17T12:13:14.206Z,0.80
2023-02-17T12:18:49.475Z,0.50
2023-02-17T12:24:09.646Z,0.40
2023-02-17T12:29:29.692Z,0.47
2023-02-17T12:34:38.457Z,0.50
2023-02-17T12:39:46.175Z,0.50
2023-02-17T12:44:51.778Z,0.50
2023-02-17T12:50:00.722Z,0.60
2023-02-17T12:55:10.515Z,0.50
2023-02-17T13:00:23.978Z,0.70
2023-02-17T13:05:31.403Z,0.57
2023-02-17T13:10:36.635Z,0.80
2023-02-17T13:15:46.173Z,0.60
2023-02-17T13:20:54.533Z,0.87
2023-02-17T13:26:16.731Z,0.70
2023-02-17T13:31:21.618Z,0.70
2023-02-17T13:36:32.482Z,0.57
2023-02-17T13:41:45.426Z,0.87
2023-02-17T13:46:47.357Z,0.60
2023-02-17T13:51:48.927Z,0.80
2023-02-17T13:56:52.474Z,0.70
2023-02-17T14:01:56.197Z,0.70
2023-02-17T14:07:03.948Z,0.70
2023-02-17T14:12:08.072Z,0.70
2023-02-17T14:17:32.702Z,0.60
2023-02-17T14:22:36.006Z,0.80
2023-02-17T14:27:45.631Z,0.87
2023-02-17T14:32:47.931Z,0.83
2023-02-17T14:37:50.340Z,0.73
2023-02-17T14:42:52.352Z,1.00
2023-02-17T14:47:54.043Z,1.07
2023-02-17T14:52:56.056Z,0.83
2023-02-17T14:57:57.630Z,1.10
2023-02-17T15:02:59.203Z,1.10
2023-02-17T15:08:01.284Z,1.03
2023-02-17T15:13:03.368Z,1.20
2023-02-17T15:18:04.987Z,1.33
2023-02-17T15:23:12.943Z,1.10
2023-02-17T15:28:19.705Z,1.10
2023-02-17T15:33:23.023Z,1.40
2023-02-17T15:38:25.067Z,1.17
2023-02-17T15:43:33.615Z,1.47
2023-02-17T15:48:35.156Z,1.47
2023-02-17T15:53:36.718Z,1.80
2023-02-17T15:58:39.939Z,1.77
2023-02-17T16:03:41.554Z,2.10
2023-02-17T16:08:43.114Z,1.87
2023-02-17T16:13:46.148Z,1.80
2023-02-17T16:18:48.191Z,1.60
2023-02-17T16:23:49.751Z,1.47
2023-02-17T16:28:51.606Z,1.40
2023-02-17T16:33:59.445Z,1.60
2023-02-17T16:39:06.598Z,1.70
2023-02-17T16:44:12.921Z,2.40
2023-02-17T16:49:24.444Z,2.20
2023-02-17T16:54:26.506Z,1.97
2023-02-17T16:59:28.163Z,1.83
2023-02-17T17:04:29.701Z,1.47
2023-02-17T17:09:31.343Z,1.80
2023-02-17T17:14:32.896Z,1.90
2023-02-17T17:19:34.488Z,2.10
2023-02-17T17:24:36.266Z,1.80
2023-02-17T17:29:38.902Z,1.80
2023-02-17T17:34:40.657Z,1.97
2023-02-17T17:39:42.274Z,1.90
2023-02-17T17:44:43.922Z,1.87
2023-02-17T17:49:45.936Z,2.27
2023-02-17T17:54:47.657Z,2.00
2023-02-17T17:59:49.419Z,2.13
2023-02-17T18:04:51.194Z,2.00
2023-02-17T18:09:52.826Z,1.93
2023-02-17T18:14:54.882Z,1.53
2023-02-17T18:19:56.584Z,1.40
2023-02-17T18:24:58.304Z,1.50
2023-02-17T18:30:00.751Z,1.80
2023-02-17T18:35:02.637Z,2.00
2023-02-17T18:40:05.203Z,2.20
2023-02-17T18:45:07.133Z,2.13
2023-02-17T18:50:09.767Z,2.23
2023-02-17T18:55:12.059Z,2.37
2023-02-17T19:00:15.080Z,2.13
2023-02-17T19:05:17.632Z,2.10
2023-02-17T19:10:19.773Z,2.27
2023-02-17T19:15:21.481Z,2.10
2023-02-17T19:20:27.254Z,2.13
2023-02-17T19:25:29.792Z,2.23
2023-02-17T19:30:31.884Z,1.90
2023-02-17T19:35:33.675Z,2.40
2023-02-17T19:40:35.460Z,2.23
2023-02-17T19:45:37.436Z,1.97
2023-02-17T19:50:39.153Z,2.17
2023-02-17T19:55:41.045Z,2.10
2023-02-17T20:00:42.632Z,2.63
2023-02-17T20:05:44.258Z,2.70
2023-02-17T20:10:46.611Z,2.67
2023-02-17T20:15:48.356Z,2.40
2023-02-17T20:20:56.243Z,2.43
2023-02-17T20:25:58.557Z,2.50
2023-02-17T20:31:00.693Z,2.70
2023-02-17T20:36:03.217Z,2.67
2023-02-17T20:41:06.924Z,2.60
2023-02-17T20:46:13.872Z,2.40
2023-02-17T20:51:15.669Z,2.70
2023-02-17T20:56:19.516Z,2.87
2023-02-17T21:01:22.435Z,2.30
2023-02-17T21:06:27.223Z,2.70
2023-02-17T21:11:28.865Z,2.50
2023-02-17T21:16:31.421Z,2.67
2023-02-17T21:21:33.396Z,2.57
2023-02-17T21:26:34.937Z,2.30
2023-02-17T21:31:37.078Z,2.53
2023-02-17T21:36:38.846Z,2.10
2023-02-17T21:41:42.318Z,2.10
2023-02-17T21:46:45.080Z,2.20
2023-02-17T21:51:47.616Z,2.20
2023-02-17T21:56:50.222Z,2.30
2023-02-17T22:01:52.612Z,2.23
2023-02-17T22:06:54.580Z,2.30
2023-02-17T22:11:56.453Z,2.40
2023-02-17T22:16:58.245Z,2.57
2023-02-17T22:21:59.783Z,2.60
2023-02-17T22:27:01.434Z,2.47
2023-02-17T22:32:03.180Z,2.40
2023-02-17T22:37:04.867Z,2.50
2023-02-17T22:42:06.854Z,2.43
2023-02-17T22:47:08.472Z,2.80
2023-02-17T22:52:11.336Z,2.67
2023-02-17T22:57:12.996Z,2.77
2023-02-17T23:02:14.612Z,2.70
2023-02-17T23:07:16.315Z,2.43
2023-02-17T23:12:17.921Z,2.87
2023-02-17T23:17:19.558Z,2.87
2023-02-17T23:22:21.194Z,2.50
2023-02-17T23:27:22.842Z,2.40
2023-02-17T23:32:24.530Z,2.77
2023-02-17T23:37:26.141Z,2.70
2023-02-17T23:42:27.757Z,2.70
2023-02-17T23:47:29.393Z,2.10
2023-02-17T23:52:30.970Z,2.10
2023-02-17T23:57:39.320Z,1.97
